Time;durP1;ratioP1;P1;durP2;ratioP2;P2;SDS_P1;SDS_P2;PMS_P1;PMS_P2;Temp;Humidity;BMP_temperature;BMP_pressure;BME280_temperature;BME280_humidity;BME280_pressure;Samples;Min_cycle;Max_cycle;Signal;HPM_P1;HPM_P2
2021/01/06 00:00:11;;;;;;;66.72;20.75;;;;;;;0.79;96.96;101362.26;1626122;88;21013;-93
2021/01/06 00:02:41;;;;;;;70.55;21.02;;;;;;;0.71;97.37;101357.51;1621920;88;21231;-93
2021/01/06 00:05:11;;;;;;;60.58;19.60;;;;;;;0.82;97.12;101359.76;1621594;88;21304;-93
2021/01/06 00:07:43;;;;;;;67.75;19.45;;;;;;;0.71;97.26;101351.73;1621843;88;21196;-93
2021/01/06 00:10:12;;;;;;;70.22;20.60;;;;;;;0.77;97.40;101350.20;1604585;89;21579;-92
2021/01/06 00:12:41;;;;;;;64.50;20.40;;;;;;;0.73;97.26;101344.91;1606816;89;21215;-92
2021/01/06 00:15:11;;;;;;;60.63;19.87;;;;;;;0.72;97.60;101336.13;1562029;91;21182;-92
2021/01/06 00:17:37;;;;;;;65.08;20.85;;;;;;;0.79;97.47;101321.65;1553229;92;21242;-93
2021/01/06 00:20:08;;;;;;;66.17;20.05;;;;;;;0.93;96.76;101341.28;1553349;91;21029;-93
2021/01/06 00:22:33;;;;;;;65.50;19.40;;;;;;;0.99;96.53;101340.57;1564897;91;21460;-93
2021/01/06 00:24:59;;;;;;;69.72;20.40;;;;;;;0.86;97.15;101343.32;1564886;91;20997;-93
2021/01/06 00:27:25;;;;;;;63.10;19.65;;;;;;;0.78;96.96;101348.68;1544926;91;20941;-94
2021/01/06 00:29:51;;;;;;;61.85;18.98;;;;;;;0.68;97.54;101345.45;1564862;91;21703;-93
2021/01/06 00:32:19;;;;;;;57.00;18.98;;;;;;;0.79;97.68;101341.03;1565002;91;20981;-94
2021/01/06 00:34:46;;;;;;;57.93;19.20;;;;;;;0.64;98.04;101344.95;1540774;93;21992;-93
2021/01/06 00:37:16;;;;;;;62.10;18.42;;;;;;;0.88;97.66;101338.67;1540849;93;21706;-93
2021/01/06 00:39:42;;;;;;;61.37;18.30;;;;;;;0.94;97.34;101336.29;1541012;93;21283;-93
2021/01/06 00:42:08;;;;;;;66.30;18.95;;;;;;;1.10;96.94;101344.95;1540974;93;21119;-93
2021/01/06 00:44:34;;;;;;;56.20;16.35;;;;;;;0.90;96.48;101351.75;1533681;92;21264;-93
2021/01/06 00:47:00;;;;;;;54.27;17.92;;;;;;;0.96;96.81;101352.36;1532591;93;21288;-93
2021/01/06 00:49:26;;;;;;;52.05;16.25;;;;;;;1.02;96.16;101358.28;1532486;93;21014;-94
2021/01/06 00:51:52;;;;;;;54.40;17.17;;;;;;;0.95;96.56;101361.34;1532619;93;21082;-93
2021/01/06 00:54:18;;;;;;;49.85;15.48;;;;;;;1.02;97.18;101352.16;1536436;91;21081;-93
2021/01/06 00:56:43;;;;;;;56.75;17.15;;;;;;;1.18;96.61;101357.82;1560794;90;21238;-93
2021/01/06 00:59:10;;;;;;;51.37;16.45;;;;;;;1.19;96.29;101362.14;1562517;91;21180;-93
2021/01/06 01:01:36;;;;;;;52.65;17.42;;;;;;;1.10;96.59;101362.20;1566653;91;22340;-93
2021/01/06 01:04:02;;;;;;;51.48;17.00;;;;;;;1.22;96.15;101360.46;1566582;91;20985;-93
2021/01/06 01:06:32;;;;;;;49.08;16.45;;;;;;;1.25;95.86;101352.13;1577908;88;21240;-92
2021/01/06 01:08:59;;;;;;;46.80;16.12;;;;;;;1.10;96.59;101355.57;1601307;89;21149;-93
2021/01/06 01:11:27;;;;;;;49.90;15.68;;;;;;;1.15;96.42;101349.73;1609551;87;21888;-93
2021/01/06 01:13:55;;;;;;;42.85;15.23;;;;;;;0.98;96.76;101345.06;1615539;87;21000;-93
2021/01/06 01:16:22;;;;;;;47.98;16.17;;;;;;;1.17;96.64;101337.09;1615871;87;21135;-94
2021/01/06 01:18:48;;;;;;;57.15;16.10;;;;;;;1.22;96.41;101339.22;1637707;86;21685;-93
2021/01/06 01:21:19;;;;;;;54.15;18.23;;;;;;;1.29;95.83;101342.80;1637570;87;21199;-93
2021/01/06 01:23:45;;;;;;;48.35;15.08;;;;;;;1.16;96.35;101343.92;1637710;87;21237;-93
2021/01/06 01:26:12;;;;;;;42.15;13.53;;;;;;;1.12;96.47;101336.32;1637514;86;20956;-94
2021/01/06 01:28:38;;;;;;;53.20;14.33;;;;;;;1.17;96.31;101345.05;1637544;87;21154;-93
2021/01/06 01:31:04;;;;;;;45.28;14.15;;;;;;;1.12;96.40;101335.50;1653442;84;20948;-92
2021/01/06 01:33:30;;;;;;;42.50;14.00;;;;;;;1.22;96.25;101339.22;1698106;83;21061;-93
2021/01/06 01:36:00;;;;;;;40.50;14.13;;;;;;;1.21;96.37;101345.55;1698128;83;21205;-92
2021/01/06 01:38:29;;;;;;;48.92;14.85;;;;;;;1.21;96.29;101342.38;1698079;84;21579;-93
2021/01/06 01:41:03;;;;;;;47.40;13.88;;;;;;;1.13;96.62;101324.69;1698133;84;21054;-93
2021/01/06 01:43:30;;;;;;;45.90;13.08;;;;;;;1.23;96.12;101340.35;1697969;84;21217;-93
2021/01/06 01:46:03;;;;;;;43.58;13.08;;;;;;;1.34;96.06;101341.76;1698386;84;21153;-94
2021/01/06 01:48:43;;;;;;;42.17;12.25;;;;;;;1.45;95.57;101341.32;1698481;83;21526;-94
2021/01/06 01:51:43;;;;;;;39.35;12.55;;;;;;;1.35;95.80;101344.25;1697925;83;21216;-93
2021/01/06 01:54:14;;;;;;;35.30;11.90;;;;;;;1.44;95.79;101344.14;1697866;83;21678;-94
2021/01/06 01:57:14;;;;;;;41.35;11.60;;;;;;;1.42;95.73;101340.87;1643108;86;21174;-93
2021/01/06 01:59:57;;;;;;;32.25;11.33;;;;;;;1.47;95.78;101347.29;1642858;86;21234;-94
2021/01/06 02:03:00;;;;;;;30.92;10.65;;;;;;;1.54;95.26;101347.38;1643526;87;21225;-94
2021/01/06 02:05:50;;;;;;;36.77;12.03;;;;;;;1.32;96.42;101347.27;1643919;87;21210;-93
2021/01/06 02:08:35;;;;;;;38.92;11.40;;;;;;;1.36;96.64;101338.43;1641086;87;21282;-93
2021/01/06 02:11:15;;;;;;;32.75;11.40;;;;;;;1.28;96.80;101334.01;1643405;87;21247;-93
2021/01/06 02:13:44;;;;;;;32.17;11.70;;;;;;;1.23;97.24;101337.70;1595758;89;21211;-93
2021/01/06 02:16:42;;;;;;;32.08;10.98;;;;;;;1.18;97.58;101332.60;1577429;89;21442;-93
2021/01/06 02:21:51;;;;;;;40.63;11.65;;;;;;;1.31;97.49;101340.28;1889683;75;23285;-93
2021/01/06 02:24:17;;;;;;;48.10;14.45;;;;;;;1.24;97.51;101336.72;1860359;77;21141;-94
2021/01/06 02:26:43;;;;;;;52.23;15.32;;;;;;;1.30;97.44;101339.16;1860445;77;21088;-94
2021/01/06 02:29:09;;;;;;;44.95;13.45;;;;;;;1.35;97.50;101342.92;1860513;77;21027;-94
2021/01/06 02:31:35;;;;;;;38.73;11.93;;;;;;;1.41;96.99;101344.51;1827247;77;21173;-94
2021/01/06 02:34:01;;;;;;;39.08;10.68;;;;;;;1.49;96.82;101340.45;1860560;77;21594;-95
2021/01/06 02:36:29;;;;;;;36.13;11.10;;;;;;;1.41;96.64;101333.89;1827522;77;21121;-94
2021/01/06 02:38:55;;;;;;;35.85;11.20;;;;;;;1.50;96.64;101339.44;1860840;77;21146;-94
2021/01/06 02:41:21;;;;;;;39.38;10.60;;;;;;;1.44;96.48;101344.14;1860904;77;21097;-95
2021/01/06 02:43:49;;;;;;;43.50;11.48;;;;;;;1.52;96.79;101344.89;1860485;77;21023;-94
2021/01/06 02:46:16;;;;;;;33.75;9.55;;;;;;;1.56;96.32;101334.75;1860274;77;21156;-94
2021/01/06 02:48:42;;;;;;;32.67;10.55;;;;;;;1.40;96.82;101340.22;1860415;77;21667;-94
2021/01/06 02:51:20;;;;;;;35.95;10.53;;;;;;;1.36;97.27;101342.41;1826763;77;21153;-94
2021/01/06 02:53:52;;;;;;;33.88;11.03;;;;;;;1.39;97.45;101343.38;1851803;77;21118;-93
2021/01/06 02:56:21;;;;;;;33.05;10.88;;;;;;;1.39;97.21;101344.70;1753648;80;21592;-93
2021/01/06 02:58:50;;;;;;;41.33;11.73;;;;;;;1.43;97.11;101337.20;1722721;83;21234;-94
2021/01/06 03:01:20;;;;;;;41.15;10.75;;;;;;;1.43;97.27;101338.52;1756605;80;21766;-93
2021/01/06 03:03:48;;;;;;;31.37;10.70;;;;;;;1.29;97.51;101335.64;1722911;82;22154;-94
2021/01/06 03:06:20;;;;;;;42.17;10.35;;;;;;;1.40;97.66;101330.41;1756201;80;21158;-94
2021/01/06 03:08:45;;;;;;;34.95;10.88;;;;;;;1.35;97.85;101329.64;1757897;79;21207;-93
2021/01/06 03:11:12;;;;;;;34.15;10.63;;;;;;;1.29;97.92;101329.01;1722731;81;20974;-94
2021/01/06 03:13:38;;;;;;;27.82;8.88;;;;;;;1.44;97.32;101323.75;1731233;81;21195;-92
2021/01/06 03:16:05;;;;;;;32.00;9.68;;;;;;;1.31;97.90;101323.53;1756714;81;21581;-91
2021/01/06 03:18:31;;;;;;;34.23;10.58;;;;;;;1.36;97.95;101327.81;1756479;80;21155;-92
2021/01/06 03:21:05;;;;;;;31.70;9.55;;;;;;;1.25;98.56;101326.91;1722902;81;21506;-92
2021/01/06 03:23:38;;;;;;;37.67;9.35;;;;;;;1.32;98.47;101322.52;1722189;83;21107;-92
2021/01/06 03:26:09;;;;;;;27.00;9.00;;;;;;;1.30;98.49;101324.55;1693545;83;21231;-92
2021/01/06 03:28:37;;;;;;;28.52;9.13;;;;;;;1.28;98.02;101324.72;1722532;83;21239;-92
2021/01/06 03:31:08;;;;;;;31.45;9.48;;;;;;;1.37;98.23;101324.14;1722310;83;21680;-92
2021/01/06 03:34:00;;;;;;;33.83;9.10;;;;;;;1.35;98.09;101336.28;1721666;82;21262;-92
2021/01/06 03:36:31;;;;;;;31.37;9.20;;;;;;;1.40;98.05;101337.05;1689979;83;21652;-92
2021/01/06 03:39:02;;;;;;;30.57;8.98;;;;;;;1.42;97.84;101328.41;1713947;83;21192;-92
2021/01/06 03:41:30;;;;;;;28.70;8.68;;;;;;;1.38;97.77;101328.43;1690035;83;21156;-93
2021/01/06 03:44:03;;;;;;;39.78;9.75;;;;;;;1.46;97.95;101337.65;1714069;83;21168;-91
2021/01/06 03:46:36;;;;;;;34.63;8.88;;;;;;;1.44;97.85;101341.48;1669547;84;22574;-92
2021/01/06 03:49:24;;;;;;;32.48;9.03;;;;;;;1.49;97.61;101330.65;1694065;84;21132;-91
2021/01/06 03:52:16;;;;;;;35.25;9.95;;;;;;;1.41;97.41;101328.58;1666985;85;21258;-92
2021/01/06 03:54:50;;;;;;;35.60;9.85;;;;;;;1.47;97.20;101326.05;1657705;86;21269;-91
2021/01/06 03:57:18;;;;;;;31.75;9.38;;;;;;;1.47;97.55;101328.70;1605110;89;21246;-92
2021/01/06 03:59:48;;;;;;;43.78;9.78;;;;;;;1.64;97.10;101331.17;1664120;86;21593;-91
2021/01/06 04:02:21;;;;;;;29.12;9.78;;;;;;;1.59;96.97;101329.08;1664060;86;21175;-92
2021/01/06 04:04:53;;;;;;;40.10;10.00;;;;;;;1.62;96.91;101335.34;1664306;86;21092;-91
2021/01/06 04:07:27;;;;;;;38.20;9.18;;;;;;;1.72;96.61;101335.89;1576887;91;21858;-92
2021/01/06 04:10:13;;;;;;;26.35;7.75;;;;;;;1.69;96.26;101333.59;1577079;91;21705;-92
2021/01/06 04:12:39;;;;;;;35.60;7.90;;;;;;;1.71;96.49;101346.72;1496671;95;21187;-92
2021/01/06 04:15:09;;;;;;;33.85;8.30;;;;;;;1.80;96.48;101342.45;1470616;97;21251;-91
2021/01/06 04:17:41;;;;;;;35.58;8.43;;;;;;;1.86;96.01;101352.03;1469804;97;21241;-92
2021/01/06 04:20:16;;;;;;;35.03;9.18;;;;;;;1.89;95.87;101350.33;1469370;97;21277;-93
2021/01/06 04:22:53;;;;;;;30.35;8.05;;;;;;;1.84;95.94;101340.75;1464346;98;21739;-92
2021/01/06 04:25:37;;;;;;;33.95;9.05;;;;;;;1.92;95.87;101348.64;1427859;100;21287;-92
2021/01/06 04:28:21;;;;;;;33.40;8.85;;;;;;;1.94;95.56;101349.25;1427808;100;21223;-93
2021/01/06 04:30:53;;;;;;;31.05;8.20;;;;;;;1.83;95.54;101355.05;1416893;100;21245;-93
2021/01/06 04:33:33;;;;;;;27.77;7.20;;;;;;;1.96;95.50;101363.19;1393564;103;21356;-93
2021/01/06 04:36:04;;;;;;;28.20;8.40;;;;;;;1.90;95.43;101361.27;1373420;103;21207;-93
2021/01/06 04:38:38;;;;;;;32.70;8.68;;;;;;;1.91;95.35;101362.91;1402452;102;21240;-93
2021/01/06 04:41:22;;;;;;;35.23;8.70;;;;;;;1.92;95.45;101364.58;1336033;107;22635;-93
2021/01/06 04:44:13;;;;;;;31.40;8.45;;;;;;;1.87;95.31;101357.66;1344491;106;21345;-93
2021/01/06 04:47:24;;;;;;;41.55;9.35;;;;;;;2.00;95.18;101376.42;1336131;107;21348;-93
2021/01/06 04:50:14;;;;;;;44.08;8.63;;;;;;;1.96;95.03;101369.33;1387882;103;21332;-93
2021/01/06 04:53:01;;;;;;;35.50;9.10;;;;;;;1.95;94.66;101368.20;1331034;106;21725;-93
2021/01/06 04:55:35;;;;;;;41.83;8.50;;;;;;;1.90;95.12;101374.56;1333674;106;21824;-93
2021/01/06 04:58:28;;;;;;;36.63;8.88;;;;;;;1.87;95.35;101366.95;1332787;107;21315;-93
2021/01/06 05:01:22;;;;;;;36.35;7.65;;;;;;;1.74;95.36;101364.44;1330072;106;21339;-93
2021/01/06 05:04:16;;;;;;;39.63;11.57;;;;;;;1.84;95.55;101366.00;1352024;101;21355;-93
2021/01/06 05:06:50;;;;;;;42.90;12.33;;;;;;;1.68;96.46;101369.16;1403855;102;21528;-93
2021/01/06 05:09:28;;;;;;;37.83;9.98;;;;;;;1.60;96.89;101362.59;1445312;96;21247;-93
2021/01/06 05:11:59;;;;;;;33.75;8.70;;;;;;;1.61;97.28;101365.55;1486752;96;21339;-92
2021/01/06 05:14:30;;;;;;;36.25;9.20;;;;;;;1.63;96.98;101364.88;1486961;96;21265;-93
2021/01/06 05:16:57;;;;;;;34.43;9.73;;;;;;;1.66;97.31;101368.50;1486146;95;21301;-92
2021/01/06 05:19:32;;;;;;;38.25;9.70;;;;;;;1.62;97.38;101369.88;1487849;96;21231;-92
2021/01/06 05:22:01;;;;;;;41.33;10.05;;;;;;;1.72;96.96;101371.75;1490704;94;21276;-92
2021/01/06 05:24:40;;;;;;;35.08;10.10;;;;;;;1.83;96.70;101373.15;1524072;94;21279;-92
2021/01/06 05:27:21;;;;;;;43.13;10.08;;;;;;;1.65;97.54;101369.99;1524294;93;21457;-93
2021/01/06 05:29:57;;;;;;;33.13;9.95;;;;;;;1.60;97.91;101367.91;1596749;84;21632;-93
2021/01/06 05:32:39;;;;;;;32.38;9.40;;;;;;;1.62;98.01;101372.54;1707576;84;21230;-93
2021/01/06 05:35:10;;;;;;;36.15;9.83;;;;;;;1.68;97.96;101369.66;1708106;84;21197;-92
2021/01/06 05:37:36;;;;;;;38.83;9.70;;;;;;;1.51;98.30;101377.78;1732238;80;21534;-92
2021/01/06 05:40:07;;;;;;;39.73;10.82;;;;;;;1.75;97.87;101383.34;1773419;80;21176;-92
2021/01/06 05:42:41;;;;;;;38.73;9.63;;;;;;;1.84;97.16;101388.58;1700876;84;21655;-93
2021/01/06 05:45:08;;;;;;;45.83;10.55;;;;;;;1.83;97.29;101386.94;1609385;88;21178;-92
2021/01/06 05:47:48;;;;;;;51.02;11.48;;;;;;;1.90;96.99;101394.49;1607463;89;21302;-93
2021/01/06 05:50:22;;;;;;;45.48;10.40;;;;;;;1.96;96.91;101395.09;1569075;90;21688;-91
2021/01/06 05:53:02;;;;;;;37.55;10.50;;;;;;;2.02;96.80;101393.84;1494743;96;21473;-93
2021/01/06 05:55:34;;;;;;;40.55;9.58;;;;;;;1.99;96.86;101403.52;1470562;96;21725;-93
2021/01/06 05:58:22;;;;;;;33.05;9.48;;;;;;;2.00;96.95;101401.67;1468348;96;21272;-92
2021/01/06 06:01:13;;;;;;;53.78;11.12;;;;;;;2.03;96.90;101406.14;1467515;96;21333;-91
2021/01/06 06:04:05;;;;;;;56.45;13.10;;;;;;;2.15;96.58;101406.52;1455852;98;21234;-91
2021/01/06 06:07:09;;;;;;;43.58;13.18;;;;;;;2.03;97.19;101400.83;1456032;97;21858;-91
2021/01/06 06:10:06;;;;;;;60.60;13.87;;;;;;;2.12;96.69;101406.03;1441803;98;21694;-90
2021/01/06 06:12:49;;;;;;;49.20;12.03;;;;;;;2.09;96.97;101401.93;1441554;98;21673;-91
2021/01/06 06:15:35;;;;;;;46.80;13.43;;;;;;;2.15;96.94;101411.83;1441766;98;21249;-91
2021/01/06 06:18:19;;;;;;;63.58;13.83;;;;;;;2.20;96.34;101413.41;1440136;99;21303;-89
2021/01/06 06:20:59;;;;;;;51.10;12.65;;;;;;;2.18;96.62;101416.78;1443120;97;22191;-89
2021/01/06 06:23:51;;;;;;;73.17;12.82;;;;;;;2.28;96.55;101415.16;1470521;96;21285;-89
2021/01/06 06:26:46;;;;;;;56.42;12.55;;;;;;;2.24;96.52;101412.05;1469030;96;21281;-89
2021/01/06 06:29:26;;;;;;;43.58;11.48;;;;;;;2.11;96.83;101407.87;1437983;99;21372;-89
2021/01/06 06:31:56;;;;;;;46.02;11.18;;;;;;;2.10;97.58;101410.22;1441879;98;21253;-89
2021/01/06 06:34:36;;;;;;;49.63;11.60;;;;;;;2.11;97.47;101405.21;1441838;98;21339;-89
2021/01/06 06:37:19;;;;;;;51.53;12.75;;;;;;;2.13;97.47;101409.03;1450079;97;21261;-90
2021/01/06 06:39:59;;;;;;;55.08;11.38;;;;;;;2.18;96.95;101407.47;1468858;96;21243;-89
2021/01/06 06:42:30;;;;;;;47.88;12.15;;;;;;;2.17;97.59;101418.27;1458455;97;21306;-90
2021/01/06 06:45:13;;;;;;;56.70;12.73;;;;;;;2.17;97.32;101412.45;1466639;97;21644;-89
2021/01/06 06:48:14;;;;;;;;;;;;;;;2.17;97.43;101416.44;1416841;100;21468;-90
2021/01/06 06:51:10;;;;;;;68.65;13.48;;;;;;;2.12;97.76;101411.34;1469477;96;20263;-89
2021/01/06 06:53:44;;;;;;;62.20;13.62;;;;;;;2.18;97.43;101416.78;1490998;96;21634;-90
2021/01/06 06:56:42;;;;;;;68.50;14.43;;;;;;;2.27;97.30;101416.17;1445520;99;21877;-90
2021/01/06 06:59:25;;;;;;;74.17;15.75;;;;;;;2.31;97.40;101416.11;1446811;97;21266;-90
2021/01/06 07:01:56;;;;;;;79.67;15.55;;;;;;;2.26;97.53;101418.50;1433462;98;21364;-90
2021/01/06 07:04:38;;;;;;;73.80;16.60;;;;;;;2.19;97.90;101414.94;1430742;100;21249;-91
2021/01/06 07:07:05;;;;;;;66.92;15.98;;;;;;;2.16;98.54;101412.65;1433367;98;22434;-90
2021/01/06 07:09:37;;;;;;;74.20;16.23;;;;;;;2.22;98.36;101419.88;1433383;98;21681;-91
2021/01/06 07:12:10;;;;;;;86.50;17.10;;;;;;;2.30;98.17;101417.64;1433476;99;21633;-90
2021/01/06 07:14:42;;;;;;;94.97;16.65;;;;;;;2.25;98.37;101420.34;1433477;98;21297;-90
2021/01/06 07:17:15;;;;;;;90.95;16.57;;;;;;;2.30;98.39;101419.80;1431036;98;21302;-90
2021/01/06 07:19:53;;;;;;;;;;;;;;;2.14;99.14;101413.33;1454682;97;21286;-91
2021/01/06 07:22:36;;;;;;;67.05;13.38;;;;;;;2.08;99.49;101418.05;1476425;96;20396;-90
2021/01/06 07:25:14;;;;;;;77.55;13.98;;;;;;;2.01;99.63;101417.97;1476457;97;21259;-90
2021/01/06 07:27:40;;;;;;;77.47;14.05;;;;;;;2.06;100.00;101423.56;1420466;101;21287;-90
2021/01/06 07:30:08;;;;;;;86.97;13.32;;;;;;;2.23;99.45;101423.67;1420450;101;21182;-90
2021/01/06 07:32:41;;;;;;;85.45;14.85;;;;;;;2.38;99.04;101428.16;1423820;96;21371;-91
2021/01/06 07:35:23;;;;;;;74.95;14.80;;;;;;;2.43;98.90;101434.58;1549863;89;21686;-91
2021/01/06 07:38:06;;;;;;;66.17;13.63;;;;;;;2.52;98.67;101432.64;1614457;86;21211;-91
2021/01/06 07:40:39;;;;;;;83.50;13.93;;;;;;;2.59;98.48;101430.05;1647601;86;21261;-91
2021/01/06 07:43:17;;;;;;;83.90;16.10;;;;;;;2.69;98.42;101430.09;1647706;87;21177;-90
2021/01/06 07:46:16;;;;;;;86.63;15.35;;;;;;;2.81;98.47;101436.27;1709246;83;21772;-91
2021/01/06 07:49:13;;;;;;;76.90;15.88;;;;;;;2.94;98.05;101431.06;1705431;83;21168;-91
2021/01/06 07:52:08;;;;;;;82.30;15.88;;;;;;;2.99;97.54;101442.50;1647520;87;21773;-91
2021/01/06 07:54:48;;;;;;;74.35;15.03;;;;;;;3.04;97.94;101440.10;1631938;87;22077;-90
2021/01/06 07:57:47;;;;;;;84.28;14.83;;;;;;;3.06;97.92;101436.72;1631791;87;21181;-90
2021/01/06 08:00:18;;;;;;;76.90;16.50;;;;;;;3.21;97.67;101436.66;1632031;87;21235;-91
2021/01/06 08:02:58;;;;;;;88.62;15.20;;;;;;;3.19;97.04;101437.69;1628365;87;21218;-90
2021/01/06 08:05:33;;;;;;;89.97;15.75;;;;;;;3.23;97.00;101433.31;1654769;85;21228;-92
2021/01/06 08:08:14;;;;;;;82.27;15.58;;;;;;;3.19;97.15;101433.69;1667807;86;22051;-90
2021/01/06 08:10:44;;;;;;;69.35;14.85;;;;;;;3.30;96.85;101439.55;1646341;86;21186;-91
2021/01/06 08:13:21;;;;;;;94.95;17.35;;;;;;;3.29;96.90;101438.69;1667513;86;21197;-90
2021/01/06 08:15:55;;;;;;;89.65;16.00;;;;;;;3.39;97.04;101429.06;1656324;86;21690;-89
2021/01/06 08:18:57;;;;;;;91.17;17.27;;;;;;;3.46;97.27;101430.45;1628130;88;21248;-84
2021/01/06 08:21:34;;;;;;;86.67;17.80;;;;;;;3.49;97.23;101428.73;1575648;91;21321;-85
2021/01/06 08:24:18;;;;;;;101.25;20.12;;;;;;;3.62;97.47;101432.34;1572788;91;21219;-85
2021/01/06 08:26:57;;;;;;;99.10;22.48;;;;;;;3.75;97.60;101428.94;1575601;91;21706;-85
2021/01/06 08:29:27;;;;;;;81.25;20.37;;;;;;;3.96;97.71;101433.39;1588733;90;21251;-84
2021/01/06 08:32:01;;;;;;;107.47;22.10;;;;;;;4.24;97.18;101436.55;1580251;90;21206;-84
2021/01/06 08:34:32;;;;;;;91.85;19.65;;;;;;;4.30;96.61;101426.41;1578171;89;21499;-84
2021/01/06 08:37:09;;;;;;;88.75;22.15;;;;;;;4.43;96.81;101424.31;1607029;89;21205;-85
2021/01/06 08:39:39;;;;;;;102.55;24.70;;;;;;;4.53;96.46;101430.94;1653942;86;21325;-84
2021/01/06 08:42:40;;;;;;;125.72;28.75;;;;;;;4.51;96.08;101432.97;1628043;86;21226;-85
2021/01/06 08:45:28;;;;;;;105.05;27.05;;;;;;;4.54;95.75;101423.75;1652655;86;21596;-85
2021/01/06 08:47:54;;;;;;;101.92;24.07;;;;;;;4.64;95.86;101418.84;1653916;86;21192;-86
2021/01/06 08:50:34;;;;;;;92.70;21.73;;;;;;;4.75;95.68;101417.45;1654031;86;21699;-84
2021/01/06 08:53:06;;;;;;;106.17;24.07;;;;;;;4.80;95.24;101415.53;1618504;87;21226;-84
2021/01/06 08:55:43;;;;;;;102.40;26.20;;;;;;;4.80;95.12;101413.67;1642344;86;21233;-84
2021/01/06 08:58:13;;;;;;;102.32;24.95;;;;;;;4.89;94.85;101419.66;1653489;86;21277;-85
2021/01/06 09:00:46;;;;;;;101.05;24.57;;;;;;;4.97;94.75;101422.12;1660375;86;21606;-85
2021/01/06 09:03:35;;;;;;;100.80;25.60;;;;;;;5.13;94.58;101421.75;1661117;86;21251;-84
2021/01/06 09:06:09;;;;;;;104.38;25.02;;;;;;;5.31;93.44;101411.80;1664588;86;21179;-85
2021/01/06 09:08:53;;;;;;;102.55;25.50;;;;;;;5.25;93.44;101417.97;1595535;88;21261;-84
2021/01/06 09:11:44;;;;;;;105.43;22.90;;;;;;;5.28;93.52;101428.25;1606605;89;21628;-84
2021/01/06 09:14:37;;;;;;;77.53;19.00;;;;;;;5.44;93.57;101430.53;1553482;92;21207;-84
2021/01/06 09:17:14;;;;;;;86.22;21.77;;;;;;;5.53;93.06;101424.96;1553663;92;21219;-85
2021/01/06 09:19:58;;;;;;;72.62;20.15;;;;;;;5.48;92.41;101422.10;1464924;97;21296;-84
2021/01/06 09:22:24;;;;;;;67.45;19.40;;;;;;;5.51;92.33;101421.69;1436695;97;21304;-85
2021/01/06 09:24:53;;;;;;;72.75;19.42;;;;;;;5.47;91.59;101418.58;1413460;100;21259;-85
2021/01/06 09:27:45;;;;;;;73.22;18.67;;;;;;;5.37;91.53;101423.52;1407814;100;21253;-85
2021/01/06 09:30:23;;;;;;;90.75;21.45;;;;;;;5.34;91.87;101419.41;1425080;100;21243;-84
2021/01/06 09:32:52;;;;;;;71.70;17.95;;;;;;;5.28;91.69;101419.41;1425582;100;21736;-85
2021/01/06 09:35:25;;;;;;;74.20;17.30;;;;;;;5.26;91.29;101417.45;1408861;96;21236;-85
2021/01/06 09:38:29;;;;;;;78.72;17.67;;;;;;;5.22;91.38;101425.05;1520542;94;21267;-84
2021/01/06 09:41:02;;;;;;;62.78;16.65;;;;;;;5.12;91.76;101420.12;1516664;93;22056;-85
2021/01/06 09:43:42;;;;;;;73.65;18.42;;;;;;;5.03;91.87;101423.16;1536590;93;21328;-85
2021/01/06 09:46:19;;;;;;;76.05;18.10;;;;;;;5.04;92.07;101420.82;1544942;91;21636;-84
2021/01/06 09:48:50;;;;;;;77.25;20.02;;;;;;;5.04;92.37;101424.31;1558886;91;21264;-84
2021/01/06 09:51:19;;;;;;;86.28;22.25;;;;;;;5.16;92.81;101420.53;1529605;93;21684;-84
2021/01/06 09:53:49;;;;;;;77.32;17.37;;;;;;;5.34;92.99;101418.59;1532339;93;21869;-84
2021/01/06 09:56:15;;;;;;;71.87;17.30;;;;;;;5.35;91.86;101415.70;1531712;93;21750;-84
2021/01/06 09:58:41;;;;;;;75.83;18.32;;;;;;;5.37;92.13;101417.66;1529661;91;21703;-84
2021/01/06 10:01:31;;;;;;;84.47;17.82;;;;;;;5.35;91.78;101417.03;1556075;92;21184;-84
2021/01/06 10:04:14;;;;;;;79.72;20.80;;;;;;;5.40;92.11;101407.89;1615673;87;21159;-89
2021/01/06 10:07:11;;;;;;;71.60;20.55;;;;;;;5.51;92.58;101418.50;1640874;87;21378;-89
2021/01/06 10:09:59;;;;;;;76.87;21.70;;;;;;;5.56;92.49;101417.86;1641102;87;21749;-89
2021/01/06 10:13:07;;;;;;;65.05;18.60;;;;;;;5.66;92.70;101414.28;1641167;87;21234;-90
2021/01/06 10:15:57;;;;;;;68.22;18.50;;;;;;;5.89;92.27;101409.83;1641235;87;21182;-89
2021/01/06 10:18:41;;;;;;;75.35;20.10;;;;;;;5.94;91.57;101402.01;1617429;88;21614;-90
2021/01/06 10:21:21;;;;;;;68.17;21.23;;;;;;;5.85;91.39;101405.42;1615330;88;21227;-90
2021/01/06 10:24:27;;;;;;;64.65;18.32;;;;;;;5.95;91.40;101405.53;1601556;89;21632;-90
2021/01/06 10:27:32;;;;;;;70.17;20.20;;;;;;;5.97;91.50;101401.62;1602529;89;21263;-90
2021/01/06 10:30:13;;;;;;;71.20;22.35;;;;;;;6.15;91.42;101407.64;1547530;91;21246;-90
2021/01/06 10:32:45;;;;;;;67.25;21.52;;;;;;;6.21;91.37;101406.80;1542274;92;21275;-90
2021/01/06 10:35:38;;;;;;;66.70;19.65;;;;;;;6.28;91.04;101406.77;1580954;90;21205;-90
2021/01/06 10:38:23;;;;;;;66.77;20.82;;;;;;;6.33;91.16;101407.78;1568696;91;21300;-90
2021/01/06 10:40:53;;;;;;;72.75;20.92;;;;;;;6.29;91.62;101406.55;1579173;90;21247;-90
2021/01/06 10:43:43;;;;;;;66.72;19.30;;;;;;;6.42;91.85;101408.89;1580822;90;21227;-90
2021/01/06 10:46:44;;;;;;;69.82;20.52;;;;;;;6.57;91.64;101402.75;1580956;90;21652;-89
2021/01/06 10:49:24;;;;;;;72.72;20.82;;;;;;;6.73;91.21;101400.90;1649016;86;21198;-90
2021/01/06 10:51:58;;;;;;;85.62;23.60;;;;;;;6.62;91.95;101389.55;1661303;84;21274;-88
2021/01/06 10:54:38;;;;;;;76.47;21.62;;;;;;;6.72;91.72;101401.12;1657237;85;21219;-88
2021/01/06 10:57:25;;;;;;;67.97;19.77;;;;;;;6.65;92.15;101402.51;1609713;88;21676;-88
2021/01/06 11:00:23;;;;;;;76.07;21.10;;;;;;;6.76;92.35;101410.37;1600190;88;21197;-88
2021/01/06 11:03:14;;;;;;;75.12;23.27;;;;;;;7.02;92.02;101407.53;1573220;91;22078;-88
2021/01/06 11:05:55;;;;;;;76.82;22.75;;;;;;;6.91;91.54;101408.73;1564159;91;21682;-89
2021/01/06 11:08:35;;;;;;;75.75;22.37;;;;;;;7.01;92.29;101411.78;1654229;86;21685;-89
2021/01/06 11:11:18;;;;;;;69.27;22.13;;;;;;;7.21;91.69;101402.28;1601892;88;21103;-91
2021/01/06 11:14:33;;;;;;;72.22;22.40;;;;;;;7.14;91.81;101402.30;1659386;85;21229;-91
2021/01/06 11:17:31;;;;;;;74.15;22.25;;;;;;;7.27;91.93;101394.17;1629413;87;21251;-90
2021/01/06 11:20:18;;;;;;;65.52;20.68;;;;;;;7.39;91.37;101401.00;1625227;88;21231;-92
2021/01/06 11:22:46;;;;;;;70.95;21.52;;;;;;;7.37;91.77;101404.93;1626645;87;21197;-93
2021/01/06 11:25:48;;;;;;;67.08;20.05;;;;;;;7.40;91.00;101400.47;1624325;88;21632;-93
2021/01/06 11:28:37;;;;;;;66.55;19.48;;;;;;;7.43;90.26;101400.03;1631316;87;21155;-93
2021/01/06 11:31:23;;;;;;;72.75;20.72;;;;;;;7.56;89.55;101405.80;1644982;87;21218;-91
2021/01/06 11:34:00;;;;;;;72.32;20.23;;;;;;;7.42;90.35;101405.11;1665956;82;21175;-92
2021/01/06 11:36:43;;;;;;;73.78;20.92;;;;;;;7.30;90.25;101402.30;1695064;84;21167;-91
2021/01/06 11:39:40;;;;;;;128.45;35.40;;;;;;;7.26;90.51;101402.42;1683767;85;21683;-92
2021/01/06 11:42:14;;;;;;;84.77;23.47;;;;;;;7.32;91.47;101398.05;1684626;85;21647;-92
2021/01/06 11:44:54;;;;;;;69.87;21.27;;;;;;;7.54;90.64;101403.34;1685205;85;21992;-92
2021/01/06 11:47:34;;;;;;;75.60;22.65;;;;;;;7.59;90.36;101407.54;1688747;81;21163;-90
2021/01/06 11:50:25;;;;;;;77.60;20.90;;;;;;;7.50;90.34;101410.20;1743007;82;21220;-91
2021/01/06 11:53:12;;;;;;;84.97;24.72;;;;;;;7.69;89.18;101414.55;1644303;86;21269;-92
2021/01/06 11:55:46;;;;;;;74.72;22.75;;;;;;;7.61;89.49;101418.84;1625909;86;21624;-92
2021/01/06 11:58:32;;;;;;;110.03;28.73;;;;;;;7.51;89.95;101419.87;1645238;87;21264;-92
2021/01/06 12:01:24;;;;;;;153.32;39.90;;;;;;;7.72;89.42;101419.48;1669199;84;21264;-92
2021/01/06 12:04:01;;;;;;;93.50;27.07;;;;;;;7.48;89.68;101421.13;1660247;85;21206;-93
2021/01/06 12:06:39;;;;;;;115.97;32.28;;;;;;;7.57;89.70;101426.23;1647254;86;21261;-93